Portada
METAR-TAF:

METAR-TAF

Aeroports :

Biskra, Algèria

latitud: 34-48N, longitud: 005-44E, altitud: 87 m

Observació

L'informe es va fer fa 54 minuts, a les 17:00 UTC
Vent 3 kt del Sud-Oest
Temperatura 40°C
Humitat 16%
Pressió 1011 hPa
Visibilitat 10 km o més
sense núvols per sota de 1500 mi sense presència de cumulonimbus.

METAR: DAUB 231700Z 22003KT CAVOK 40/09 Q1011

Hora: 18:54 (17:54 UTC)

Pronòstic

L'informe es va fer fa 54 minuts, a les 17:00 UTC
Pronòstic vàlid del 23 a les 18 UTC al 24 a les 18 UTC
Vent 9 kt del Sud/Sud-Oest
Visibilitat 10 km o més
sense núvols per sota de 1500 mi sense presència de cumulonimbus.
Probabilitat 30% :
Temporalment
l' 23 a les 19 UTC al 23 a les 21 UTC
Vent 12 kt del Sud-Est

TAF: DAUB 231700Z 2318/2418 20009KT CAVOK PROB30 TEMPO 2319/2321 14012KT

Observacions i pronòstics meteorològics de més de 4000 aeroports (METAR i TAF).

Les estacions disponibles són els punts grocs i vermells al mapa.

Posi el ratolí al punt desitjat per veure el nom de l'estació.

Feu clic per veure les observacions i els pronòstics meteorològics.

Per canviar el mapa: feu clic els botons verds amb una creu de color negre per apropar; al botó verd amb un guió per allunyar la imatge; o en les fletxes verdes per a mapes adjacents.


METAR-TAF: